Time;durP1;ratioP1;P1;durP2;ratioP2;P2;SDS_P1;SDS_P2;PMS_P1;PMS_P2;Temp;Humidity;BMP_temperature;BMP_pressure;BME280_temperature;BME280_humidity;BME280_pressure;Samples;Min_cycle;Max_cycle;Signal;HPM_P1;HPM_P2
2022/10/28 00:01:08;;;;;;;0.10;0.10;;;;;;;14.12;100.00;101719.09;5033139;28;20025;-72
2022/10/28 00:03:42;;;;;;;0.10;0.10;;;;;;;13.98;100.00;101704.81;5031916;28;20462;-72
2022/10/28 00:06:10;;;;;;;0.05;0.05;;;;;;;13.99;100.00;101720.03;5017037;28;20029;-72
2022/10/28 00:08:35;;;;;;;0.10;0.10;;;;;;;13.61;100.00;101669.94;5014696;28;20830;-72
2022/10/28 00:11:03;;;;;;;0.10;0.10;;;;;;;13.81;100.00;101716.94;5016167;28;20032;-72
2022/10/28 00:13:28;;;;;;;0.10;0.10;;;;;;;13.71;100.00;101702.44;5013975;28;20103;-72
2022/10/28 00:15:53;;;;;;;0.08;0.08;;;;;;;13.78;100.00;101712.63;5031300;28;20025;-72
2022/10/28 00:18:19;;;;;;;0.10;0.10;;;;;;;13.75;100.00;101707.47;5037123;28;20108;-72
2022/10/28 00:20:44;;;;;;;0.10;0.10;;;;;;;13.77;100.00;101710.06;5033475;28;20427;-72
2022/10/28 00:23:09;;;;;;;0.10;0.10;;;;;;;13.72;100.00;101720.34;5033247;28;20033;-72
2022/10/28 00:25:35;;;;;;;0.03;0.03;;;;;;;13.61;100.00;101703.16;5017669;28;20155;-72
2022/10/28 00:28:00;;;;;;;0.08;0.08;;;;;;;13.67;100.00;101711.75;5031921;28;21839;-72
2022/10/28 00:30:25;;;;;;;0.10;0.10;;;;;;;13.61;100.00;101713.94;5033820;28;20036;-72
2022/10/28 00:32:51;;;;;;;0.10;0.10;;;;;;;13.48;100.00;101697.84;5034418;28;20037;-72
2022/10/28 00:35:16;;;;;;;0.00;0.00;;;;;;;13.39;100.00;101679.63;5018600;28;20048;-71
2022/10/28 00:37:41;;;;;;;0.10;0.10;;;;;;;13.53;100.00;101708.25;5015220;28;20498;-72
2022/10/28 00:40:07;;;;;;;0.10;0.10;;;;;;;13.52;100.00;101711.94;5033545;28;20078;-72
2022/10/28 00:42:33;;;;;;;0.35;0.10;;;;;;;13.52;100.00;101706.53;5031364;28;20122;-72
2022/10/28 00:45:02;;;;;;;0.10;0.10;;;;;;;13.59;100.00;101710.50;5018213;28;20029;-72
2022/10/28 00:47:44;;;;;;;0.00;0.00;;;;;;;13.67;100.00;101711.75;4997586;28;20397;-72
2022/10/28 00:50:40;;;;;;;0.00;0.00;;;;;;;13.76;100.00;101708.34;5011954;28;20060;-72
2022/10/28 00:53:09;;;;;;;0.10;0.10;;;;;;;13.75;100.00;101688.59;4997418;28;20029;-72
2022/10/28 00:55:35;;;;;;;0.10;0.10;;;;;;;13.85;100.00;101698.69;5013413;28;20128;-72
2022/10/28 00:58:01;;;;;;;0.05;0.05;;;;;;;13.64;100.00;101680.44;5016820;28;20082;-72
2022/10/28 01:00:26;;;;;;;0.10;0.10;;;;;;;13.69;100.00;101691.75;5014080;28;20071;-72
2022/10/28 01:02:52;;;;;;;0.08;0.08;;;;;;;13.52;100.00;101659.84;5032382;28;20111;-72
2022/10/28 01:05:22;;;;;;;0.10;0.10;;;;;;;13.49;100.00;101653.69;5036192;28;20044;-72
2022/10/28 01:07:49;;;;;;;0.10;0.10;;;;;;;13.57;100.00;101687.31;5030792;28;20033;-71
2022/10/28 01:10:14;;;;;;;0.10;0.10;;;;;;;13.59;100.00;101682.66;5014143;28;20079;-72
2022/10/28 01:12:58;;;;;;;0.10;0.10;;;;;;;13.30;100.00;101677.63;5029637;28;20033;-72
2022/10/28 01:15:24;;;;;;;0.10;0.10;;;;;;;13.24;100.00;101665.50;5032521;28;20082;-72
2022/10/28 01:18:13;;;;;;;0.10;0.10;;;;;;;13.29;100.00;101662.44;5032816;28;20033;-72
2022/10/28 01:21:24;;;;;;;0.10;0.10;;;;;;;13.46;100.00;101662.03;5029455;28;20273;-71
2022/10/28 01:24:04;;;;;;;0.10;0.10;;;;;;;13.40;100.00;101645.44;5013122;28;20513;-72
2022/10/28 01:26:50;;;;;;;0.10;0.10;;;;;;;13.54;100.00;101653.31;5030838;28;20397;-72
2022/10/28 01:29:40;;;;;;;0.10;0.10;;;;;;;13.43;100.00;101651.47;5016161;28;20036;-72
2022/10/28 01:32:20;;;;;;;0.10;0.10;;;;;;;13.39;100.00;101646.41;5018373;28;20418;-72
2022/10/28 01:34:48;;;;;;;0.03;0.03;;;;;;;13.36;100.00;101655.59;5034292;28;20041;-72
2022/10/28 01:37:20;;;;;;;0.10;0.10;;;;;;;13.19;100.00;101643.41;5016733;28;20057;-72
2022/10/28 01:40:09;;;;;;;0.10;0.10;;;;;;;13.15;100.00;101650.00;5027847;28;20096;-71
2022/10/28 01:42:43;;;;;;;0.10;0.10;;;;;;;13.12;100.00;101653.78;5030132;28;20409;-72
2022/10/28 01:45:14;;;;;;;0.10;0.10;;;;;;;13.13;100.00;101649.25;5019946;28;20465;-72
2022/10/28 01:47:56;;;;;;;0.10;0.10;;;;;;;13.03;100.00;101647.25;5040560;28;20033;-72
2022/10/28 01:50:33;;;;;;;0.10;0.10;;;;;;;12.88;100.00;101654.66;5020440;28;20021;-71
2022/10/28 01:53:02;;;;;;;0.10;0.10;;;;;;;12.73;100.00;101653.09;5041890;28;20036;-71
2022/10/28 01:55:35;;;;;;;0.10;0.10;;;;;;;12.68;100.00;101653.47;5025032;28;20512;-71
2022/10/28 01:58:01;;;;;;;0.08;0.08;;;;;;;12.66;100.00;101627.59;5014130;28;20043;-71
2022/10/28 02:00:26;;;;;;;0.35;0.10;;;;;;;12.72;100.00;101621.75;5018116;28;20052;-71
2022/10/28 02:02:53;;;;;;;0.17;0.17;;;;;;;12.94;100.00;101626.41;5020026;28;20062;-71
2022/10/28 02:05:43;;;;;;;0.10;0.10;;;;;;;13.25;100.00;101655.56;5032995;28;20083;-71
2022/10/28 02:08:17;;;;;;;0.00;0.00;;;;;;;13.34;100.00;101653.00;5032846;28;20029;-71
2022/10/28 02:10:59;;;;;;;0.00;0.00;;;;;;;13.35;100.00;101643.94;5035821;28;20075;-71
2022/10/28 02:13:40;;;;;;;0.10;0.10;;;;;;;13.22;100.00;101629.69;5037250;28;20033;-71
2022/10/28 02:16:27;;;;;;;0.10;0.10;;;;;;;13.31;100.00;101638.91;5030991;28;20024;-71
2022/10/28 02:19:05;;;;;;;0.10;0.10;;;;;;;13.31;100.00;101638.91;5031229;28;20049;-71
2022/10/28 02:21:48;;;;;;;0.22;0.10;;;;;;;13.29;100.00;101633.63;5032156;28;20068;-71
2022/10/28 02:24:20;;;;;;;0.10;0.10;;;;;;;13.31;100.00;101636.22;5033594;28;20024;-71
2022/10/28 02:26:52;;;;;;;0.10;0.10;;;;;;;13.28;100.00;101642.69;5014555;28;20083;-69
2022/10/28 02:29:26;;;;;;;0.10;0.10;;;;;;;13.33;100.00;101643.19;5031422;28;20205;-69
2022/10/28 02:31:55;;;;;;;0.10;0.10;;;;;;;13.05;100.00;101618.34;5016720;28;20033;-71
2022/10/28 02:34:25;;;;;;;0.10;0.10;;;;;;;13.08;100.00;101628.06;5036143;28;20025;-70
2022/10/28 02:36:53;;;;;;;0.10;0.10;;;;;;;13.28;100.00;101641.84;5034306;28;20064;-70
2022/10/28 02:39:22;;;;;;;0.10;0.10;;;;;;;13.04;100.00;101611.22;5032574;28;20033;-71
2022/10/28 02:41:51;;;;;;;0.10;0.10;;;;;;;13.08;100.00;101629.88;5028184;28;20031;-71
2022/10/28 02:44:21;;;;;;;0.10;0.10;;;;;;;13.11;100.00;101629.63;5016958;28;20120;-69
2022/10/28 02:46:49;;;;;;;0.10;0.10;;;;;;;13.11;100.00;101622.41;5017337;28;20021;-71
2022/10/28 02:49:14;;;;;;;0.10;0.10;;;;;;;13.00;100.00;101609.75;5016584;28;20025;-71
2022/10/28 02:52:01;;;;;;;0.10;0.10;;;;;;;13.10;100.00;101633.31;5035026;28;20037;-71
2022/10/28 02:54:27;;;;;;;0.00;0.00;;;;;;;13.13;100.00;101636.63;5017126;28;20032;-70
2022/10/28 02:57:00;;;;;;;0.10;0.10;;;;;;;13.00;100.00;101609.75;5019873;28;20025;-70
2022/10/28 02:59:27;;;;;;;0.10;0.10;;;;;;;13.17;100.00;101629.19;5020786;28;20103;-70
2022/10/28 03:01:52;;;;;;;0.10;0.10;;;;;;;13.15;100.00;101629.28;5030871;28;20513;-70
2022/10/28 03:04:18;;;;;;;0.10;0.10;;;;;;;13.15;100.00;101623.03;5047659;28;20033;-72
2022/10/28 03:06:43;;;;;;;0.10;0.10;;;;;;;13.18;100.00;101609.31;5046742;28;20585;-70
2022/10/28 03:09:08;;;;;;;0.10;0.10;;;;;;;13.21;100.00;101617.19;5035373;28;20059;-70
2022/10/28 03:11:34;;;;;;;0.10;0.10;;;;;;;13.08;100.00;101624.47;5019172;28;20025;-71
2022/10/28 03:13:59;;;;;;;0.10;0.10;;;;;;;12.85;100.00;101597.44;5022369;28;21169;-73
2022/10/28 03:16:25;;;;;;;0.13;0.10;;;;;;;12.89;100.00;101620.50;5021750;28;20060;-70
2022/10/28 03:18:51;;;;;;;0.10;0.10;;;;;;;12.73;100.00;101604.63;5033149;28;20025;-72
2022/10/28 03:21:16;;;;;;;0.10;0.10;;;;;;;12.59;100.00;101595.72;5018002;28;20039;-70
2022/10/28 03:23:41;;;;;;;0.10;0.10;;;;;;;12.59;100.00;101603.78;5037961;28;20484;-69
2022/10/28 03:26:07;;;;;;;0.10;0.10;;;;;;;12.59;100.00;101600.25;5035342;28;20063;-69
2022/10/28 03:28:32;;;;;;;0.10;0.10;;;;;;;12.76;100.00;101625.94;5036708;28;20056;-70
2022/10/28 03:30:57;;;;;;;0.10;0.10;;;;;;;12.66;100.00;101614.13;5034354;28;20080;-70
2022/10/28 03:33:23;;;;;;;0.10;0.10;;;;;;;12.82;100.00;101622.78;5028105;28;20059;-70
2022/10/28 03:35:48;;;;;;;0.10;0.10;;;;;;;12.71;100.00;101615.47;5040662;28;20028;-70
2022/10/28 03:38:13;;;;;;;0.10;0.10;;;;;;;12.81;100.00;101613.00;5037427;28;20053;-72
2022/10/28 03:40:39;;;;;;;0.10;0.10;;;;;;;12.72;100.00;101606.44;5018463;28;20044;-70
2022/10/28 03:43:04;;;;;;;0.10;0.10;;;;;;;12.88;100.00;101606.13;5037179;28;20044;-69
2022/10/28 03:45:29;;;;;;;0.10;0.10;;;;;;;12.90;100.00;101604.19;5038058;28;20056;-69
2022/10/28 03:47:55;;;;;;;0.10;0.10;;;;;;;12.90;100.00;101597.97;5041216;28;20021;-72
2022/10/28 03:50:20;;;;;;;0.10;0.10;;;;;;;12.95;100.00;101608.38;5024206;28;20037;-71
2022/10/28 03:52:45;;;;;;;0.10;0.10;;;;;;;13.09;100.00;101610.03;5028578;28;20128;-71
2022/10/28 03:55:11;;;;;;;0.10;0.10;;;;;;;12.93;100.00;101602.25;5042768;28;20427;-71
2022/10/28 03:57:36;;;;;;;0.10;0.10;;;;;;;12.97;100.00;101617.22;5035356;28;20033;-70
2022/10/28 04:00:03;;;;;;;0.10;0.10;;;;;;;12.99;100.00;101615.25;5019668;28;20028;-70
2022/10/28 04:02:29;;;;;;;0.13;0.13;;;;;;;13.01;100.00;101611.47;5016713;28;20037;-70
2022/10/28 04:04:54;;;;;;;0.10;0.10;;;;;;;12.99;100.00;101609.88;5035143;28;20063;-71
2022/10/28 04:07:19;;;;;;;0.10;0.10;;;;;;;13.05;100.00;101609.41;5035498;28;20480;-71
2022/10/28 04:09:48;;;;;;;0.10;0.10;;;;;;;13.01;100.00;101611.47;5037976;28;20145;-71
2022/10/28 04:12:13;;;;;;;0.10;0.10;;;;;;;12.99;100.00;101602.63;5033192;28;20028;-69
2022/10/28 04:14:39;;;;;;;0.13;0.10;;;;;;;12.90;100.00;101579.94;5035419;28;20062;-70
2022/10/28 04:17:04;;;;;;;0.10;0.10;;;;;;;13.07;100.00;101593.97;5018913;28;20520;-71
2022/10/28 04:19:29;;;;;;;0.10;0.10;;;;;;;13.09;100.00;101597.41;5020328;28;20784;-70
2022/10/28 04:21:54;;;;;;;0.10;0.10;;;;;;;12.95;100.00;101605.69;5033753;28;20032;-72
2022/10/28 04:24:20;;;;;;;0.10;0.10;;;;;;;12.78;100.00;101594.34;5032436;28;20155;-72
2022/10/28 04:26:45;;;;;;;0.10;0.10;;;;;;;12.83;100.00;101611.03;5036870;28;20065;-71
2022/10/28 04:29:10;;;;;;;0.10;0.10;;;;;;;12.84;100.00;101593.91;5040556;28;20064;-72
2022/10/28 04:31:36;;;;;;;0.10;0.10;;;;;;;13.05;100.00;101612.09;5039704;28;20072;-71
2022/10/28 04:34:01;;;;;;;0.10;0.10;;;;;;;13.07;100.00;101604.75;5048826;28;20036;-71
2022/10/28 04:36:26;;;;;;;0.10;0.10;;;;;;;13.11;100.00;101595.44;5045813;28;20037;-71
2022/10/28 04:38:52;;;;;;;0.10;0.10;;;;;;;13.16;100.00;101605.88;5043064;28;20745;-70
2022/10/28 04:41:17;;;;;;;0.10;0.10;;;;;;;13.17;100.00;101605.75;5034610;28;20033;-70
2022/10/28 04:43:42;;;;;;;0.10;0.10;;;;;;;13.34;100.00;101611.72;5030791;28;20442;-69
2022/10/28 04:46:08;;;;;;;0.10;0.10;;;;;;;13.29;100.00;101617.44;5051746;28;20029;-71
2022/10/28 04:48:34;;;;;;;0.10;0.10;;;;;;;13.20;100.00;101599.28;5047658;28;20476;-71
2022/10/28 04:50:59;;;;;;;0.10;0.10;;;;;;;13.24;100.00;101611.56;5042066;28;20036;-70
2022/10/28 04:53:25;;;;;;;0.10;0.10;;;;;;;13.24;100.00;101613.38;5046618;28;20178;-70
2022/10/28 04:55:50;;;;;;;0.10;0.10;;;;;;;13.01;100.00;101599.84;5030427;28;20037;-70
2022/10/28 04:58:16;;;;;;;0.10;0.10;;;;;;;13.05;100.00;101612.09;5025690;28;20112;-71
2022/10/28 05:00:41;;;;;;;0.10;0.10;;;;;;;12.83;100.00;101597.56;5024751;28;20029;-70
2022/10/28 05:03:07;;;;;;;0.10;0.10;;;;;;;12.89;100.00;101610.56;5020690;28;22762;-71
2022/10/28 05:05:32;;;;;;;0.10;0.10;;;;;;;12.92;100.00;101604.09;5023390;28;20049;-70
2022/10/28 05:07:58;;;;;;;0.00;0.00;;;;;;;13.03;100.00;101611.34;5041696;28;20035;-71
2022/10/28 05:10:23;;;;;;;0.10;0.10;;;;;;;13.14;100.00;101594.34;5023781;28;20063;-70
2022/10/28 05:12:49;;;;;;;0.10;0.10;;;;;;;13.31;100.00;101609.25;5028430;28;20358;-71
2022/10/28 05:15:15;;;;;;;0.10;0.10;;;;;;;13.34;100.00;101611.72;5032362;28;20071;-71
2022/10/28 05:17:44;;;;;;;0.10;0.10;;;;;;;13.46;100.00;101607.22;5050001;28;20028;-70
2022/10/28 05:20:11;;;;;;;0.10;0.10;;;;;;;13.60;100.00;101604.28;5044188;28;20056;-71
2022/10/28 05:22:36;;;;;;;0.10;0.10;;;;;;;13.21;100.00;101574.03;5033237;28;20031;-70
2022/10/28 05:25:03;;;;;;;0.10;0.10;;;;;;;13.56;100.00;101607.38;5029585;28;20025;-70
2022/10/28 05:27:28;;;;;;;0.10;0.10;;;;;;;13.55;100.00;101598.38;5014404;28;20033;-71
2022/10/28 05:29:54;;;;;;;0.10;0.10;;;;;;;13.43;100.00;101583.19;5024332;28;20063;-69
2022/10/28 05:32:19;;;;;;;0.10;0.10;;;;;;;13.27;100.00;101575.41;5027728;28;20037;-70
2022/10/28 05:34:44;;;;;;;0.10;0.10;;;;;;;13.33;100.00;101583.03;5005522;28;20102;-69
2022/10/28 05:37:09;;;;;;;0.10;0.10;;;;;;;13.39;100.00;101598.69;5037884;28;20028;-70
2022/10/28 05:39:35;;;;;;;0.10;0.10;;;;;;;13.49;100.00;101594.34;5037247;28;20568;-70
2022/10/28 05:42:00;;;;;;;0.10;0.10;;;;;;;13.36;100.00;101585.47;5035214;28;20059;-71
2022/10/28 05:44:25;;;;;;;0.10;0.10;;;;;;;13.40;100.00;101583.38;5017610;28;20025;-73
2022/10/28 05:46:52;;;;;;;0.10;0.10;;;;;;;13.54;100.00;101590.44;5017303;28;20495;-70
2022/10/28 05:49:19;;;;;;;0.10;0.10;;;;;;;13.39;100.00;101568.19;5023022;28;20043;-69
2022/10/28 05:51:45;;;;;;;0.10;0.10;;;;;;;13.49;100.00;101582.72;5021679;28;20032;-70
2022/10/28 05:54:11;;;;;;;0.10;0.10;;;;;;;13.38;100.00;101566.47;5019279;28;20055;-70
2022/10/28 05:56:36;;;;;;;0.10;0.10;;;;;;;13.37;100.00;101600.69;5023141;28;20473;-71
2022/10/28 05:59:01;;;;;;;0.10;0.10;;;;;;;13.38;100.00;101578.09;5000784;28;20151;-70
2022/10/28 06:01:26;;;;;;;0.10;0.10;;;;;;;13.30;100.00;101572.47;5016054;28;20055;-72
2022/10/28 06:03:52;;;;;;;0.10;0.10;;;;;;;13.42;100.00;101595.81;5016517;28;20123;-70
2022/10/28 06:06:17;;;;;;;0.10;0.10;;;;;;;13.57;100.00;101592.91;5028301;28;20083;-71
2022/10/28 06:08:42;;;;;;;0.10;0.10;;;;;;;13.48;100.00;101605.28;5017743;28;20116;-71
2022/10/28 06:11:08;;;;;;;0.10;0.10;;;;;;;13.25;100.00;101590.84;5016250;28;20219;-71
2022/10/28 06:13:33;;;;;;;0.10;0.10;;;;;;;13.62;100.00;101596.09;5015819;28;20032;-70
2022/10/28 06:15:58;;;;;;;0.20;0.20;;;;;;;13.70;100.00;101580.13;5018078;28;20029;-72
2022/10/28 06:18:24;;;;;;;0.10;0.10;;;;;;;13.65;100.00;101579.63;5015127;28;20123;-71
2022/10/28 06:20:54;;;;;;;0.10;0.10;;;;;;;13.74;100.00;101599.66;5013123;28;20060;-72
2022/10/28 06:23:19;;;;;;;0.10;0.10;;;;;;;13.66;100.00;101605.63;5021615;28;20051;-71
2022/10/28 06:25:44;;;;;;;0.20;0.20;;;;;;;13.48;100.00;101592.63;5026203;28;20476;-70
2022/10/28 06:28:10;;;;;;;0.10;0.10;;;;;;;13.35;100.00;101578.38;5005969;28;20748;-71
2022/10/28 06:30:35;;;;;;;0.10;0.10;;;;;;;13.53;100.00;101604.91;5038980;28;20044;-71
2022/10/28 06:33:00;;;;;;;0.10;0.10;;;;;;;13.60;100.00;101596.19;5022676;28;20424;-70
2022/10/28 06:35:26;;;;;;;0.10;0.10;;;;;;;13.67;100.00;101610.06;5040092;28;20465;-71
2022/10/28 06:37:55;;;;;;;0.05;0.05;;;;;;;13.55;100.00;101614.59;5035676;28;20188;-72
2022/10/28 06:40:21;;;;;;;0.10;0.10;;;;;;;13.56;100.00;101619.00;5024414;28;20032;-71
2022/10/28 06:42:46;;;;;;;0.10;0.10;;;;;;;13.56;100.00;101613.59;5037181;28;20029;-72
2022/10/28 06:45:11;;;;;;;0.10;0.10;;;;;;;13.63;100.00;101597.81;5010812;28;20034;-70
2022/10/28 06:47:37;;;;;;;0.10;0.10;;;;;;;13.68;100.00;101589.34;5047000;28;20028;-68
2022/10/28 06:50:02;;;;;;;0.10;0.10;;;;;;;13.81;100.00;101619.75;5052182;28;20032;-71
2022/10/28 06:52:28;;;;;;;0.10;0.10;;;;;;;13.88;100.00;101612.91;5045740;28;20033;-70
2022/10/28 06:54:53;;;;;;;0.10;0.10;;;;;;;13.92;100.00;101618.91;5027777;28;20082;-71
2022/10/28 06:57:18;;;;;;;0.10;0.10;;;;;;;13.91;100.00;101609.09;5035064;28;20062;-71
2022/10/28 06:59:44;;;;;;;0.10;0.10;;;;;;;13.84;100.00;101615.97;5045639;28;20033;-71
2022/10/28 07:02:10;;;;;;;0.10;0.10;;;;;;;13.71;100.00;101605.28;5024689;28;20039;-71
2022/10/28 07:04:35;;;;;;;0.15;0.15;;;;;;;13.82;100.00;101607.16;5028290;28;20021;-71
2022/10/28 07:07:01;;;;;;;0.10;0.10;;;;;;;13.91;100.00;101623.47;5042639;28;20513;-71
2022/10/28 07:09:26;;;;;;;0.10;0.10;;;;;;;13.88;100.00;101602.09;5043090;28;20127;-71
2022/10/28 07:11:52;;;;;;;0.10;0.10;;;;;;;14.11;100.00;101604.78;5031777;28;20036;-71
2022/10/28 07:14:17;;;;;;;0.10;0.10;;;;;;;14.10;100.00;101597.66;5016416;28;20037;-70
2022/10/28 07:16:42;;;;;;;0.10;0.10;;;;;;;14.13;100.00;101594.72;5030855;28;20024;-71
2022/10/28 07:19:08;;;;;;;0.10;0.10;;;;;;;14.17;100.00;101625.06;5047075;28;20056;-72
2022/10/28 07:21:34;;;;;;;0.10;0.10;;;;;;;14.37;100.00;101627.00;5033508;28;20052;-71
2022/10/28 07:23:59;;;;;;;0.10;0.10;;;;;;;14.22;100.00;101599.38;5033705;28;20135;-70
2022/10/28 07:26:25;;;;;;;0.10;0.10;;;;;;;14.42;100.00;101629.31;5011980;28;20028;-71
2022/10/28 07:28:50;;;;;;;0.10;0.10;;;;;;;14.31;100.00;101610.41;5043390;28;20099;-72
2022/10/28 07:31:16;;;;;;;0.10;0.10;;;;;;;14.54;100.00;101622.91;5044008;28;20049;-70
2022/10/28 07:33:41;;;;;;;0.10;0.10;;;;;;;14.61;100.00;101631.38;5026250;28;20089;-70
2022/10/28 07:36:07;;;;;;;0.10;0.10;;;;;;;14.71;100.00;101623.38;5034671;28;20146;-70
2022/10/28 07:38:32;;;;;;;0.10;0.10;;;;;;;14.73;100.00;101617.84;5029572;28;20024;-70
2022/10/28 07:40:58;;;;;;;0.10;0.10;;;;;;;14.75;100.00;101600.53;5023372;28;20059;-70
2022/10/28 07:43:23;;;;;;;0.10;0.10;;;;;;;15.07;100.00;101624.00;5043192;28;20068;-71
2022/10/28 07:45:55;;;;;;;0.10;0.10;;;;;;;15.20;100.00;101629.22;5040750;28;20032;-71
2022/10/28 07:48:20;;;;;;;0.20;0.20;;;;;;;15.32;100.00;101621.03;5027411;28;20028;-71
2022/10/28 07:50:45;;;;;;;0.10;0.10;;;;;;;15.45;100.00;101627.97;5022337;28;20377;-71
2022/10/28 07:53:11;;;;;;;0.10;0.10;;;;;;;15.72;100.00;101629.25;5040271;28;20063;-72
2022/10/28 07:55:36;;;;;;;0.10;0.10;;;;;;;15.92;100.00;101623.13;5038736;28;20289;-72
2022/10/28 07:58:01;;;;;;;0.10;0.10;;;;;;;16.12;100.00;101629.47;5017879;28;20033;-73
2022/10/28 08:00:27;;;;;;;0.10;0.10;;;;;;;16.19;100.00;101604.41;5021104;28;20087;-70
2022/10/28 08:02:52;;;;;;;0.10;0.10;;;;;;;16.32;100.00;101622.25;5022943;28;20032;-70
2022/10/28 08:05:17;;;;;;;0.03;0.03;;;;;;;16.24;100.00;101611.28;5030079;28;20033;-72
2022/10/28 08:07:43;;;;;;;0.10;0.10;;;;;;;16.42;100.00;101604.19;5043743;28;20071;-73
2022/10/28 08:10:08;;;;;;;0.10;0.10;;;;;;;16.73;100.00;101627.63;5024334;28;20029;-72
2022/10/28 08:12:33;;;;;;;0.15;0.15;;;;;;;16.77;100.00;101608.22;5038753;28;20033;-72
2022/10/28 08:14:59;;;;;;;0.10;0.10;;;;;;;16.93;100.00;101618.53;5024000;28;20114;-71
2022/10/28 08:17:24;;;;;;;0.10;0.10;;;;;;;17.11;100.00;101616.94;5042861;28;20028;-74
2022/10/28 08:19:49;;;;;;;0.00;0.00;;;;;;;17.00;100.00;101601.69;5041143;28;20072;-72
2022/10/28 08:22:15;;;;;;;0.10;0.10;;;;;;;17.08;100.00;101585.56;5037671;28;20230;-72
2022/10/28 08:24:40;;;;;;;0.10;0.10;;;;;;;17.24;100.00;101606.69;5025495;28;20021;-71
2022/10/28 08:27:05;;;;;;;0.10;0.10;;;;;;;17.53;100.00;101620.19;5024566;28;20036;-72
2022/10/28 08:29:31;;;;;;;0.10;0.10;;;;;;;17.40;100.00;101616.94;5041909;28;20514;-72
2022/10/28 08:31:56;;;;;;;0.10;0.10;;;;;;;17.33;100.00;101608.53;5022016;28;20627;-74
2022/10/28 08:34:22;;;;;;;0.10;0.10;;;;;;;17.43;100.00;101604.91;5027272;28;20516;-71
2022/10/28 08:36:47;;;;;;;0.10;0.10;;;;;;;17.71;100.00;101632.16;5022771;28;20032;-73
2022/10/28 08:39:12;;;;;;;0.10;0.10;;;;;;;17.82;100.00;101645.56;5018638;28;20037;-72
2022/10/28 08:41:51;;;;;;;0.10;0.10;;;;;;;17.75;100.00;101639.84;5038387;28;20041;-74
2022/10/28 08:44:35;;;;;;;0.00;0.00;;;;;;;17.61;100.00;101643.03;5015804;28;20025;-73
2022/10/28 08:47:15;;;;;;;0.10;0.10;;;;;;;17.59;100.00;101643.19;5037202;28;21522;-72
2022/10/28 08:49:41;;;;;;;0.10;0.10;;;;;;;17.79;100.00;101640.41;5013197;28;20081;-72
2022/10/28 08:52:41;;;;;;;0.05;0.05;;;;;;;17.97;100.00;101640.50;5015706;28;20037;-73
2022/10/28 08:55:14;;;;;;;0.10;0.10;;;;;;;18.10;100.00;101629.34;5021633;28;20067;-72
2022/10/28 08:57:43;;;;;;;0.10;0.10;;;;;;;18.29;100.00;101633.78;5020985;28;20364;-71
2022/10/28 09:00:18;;;;;;;0.10;0.10;;;;;;;18.42;100.00;101638.88;5034472;28;20021;-72
2022/10/28 09:02:49;;;;;;;0.10;0.10;;;;;;;18.64;99.85;101644.94;5014994;28;20140;-70
2022/10/28 09:05:25;;;;;;;0.10;0.10;;;;;;;18.82;99.33;101636.75;5028898;28;20110;-74
2022/10/28 09:07:51;;;;;;;0.10;0.10;;;;;;;18.93;98.74;101606.63;5018384;28;20036;-72
2022/10/28 09:10:24;;;;;;;0.10;0.10;;;;;;;19.11;97.84;101625.69;5016425;28;20032;-73
2022/10/28 09:13:05;;;;;;;0.00;0.00;;;;;;;19.21;99.07;101616.56;5015235;28;20059;-72
2022/10/28 09:15:36;;;;;;;0.10;0.10;;;;;;;19.37;94.26;101633.03;5028803;28;20037;-72
2022/10/28 09:18:33;;;;;;;0.03;0.03;;;;;;;19.57;95.73;101644.59;5015752;28;20036;-73
2022/10/28 09:21:04;;;;;;;0.10;0.10;;;;;;;19.69;94.31;101622.53;5033299;28;20075;-71
2022/10/28 09:23:32;;;;;;;0.10;0.10;;;;;;;19.69;96.74;101630.69;5016077;28;20403;-74
2022/10/28 09:26:23;;;;;;;0.10;0.10;;;;;;;19.50;94.87;101619.00;5037944;28;20031;-69
2022/10/28 09:29:11;;;;;;;0.10;0.10;;;;;;;19.67;92.52;101638.16;5018348;28;20037;-71
2022/10/28 09:31:48;;;;;;;0.10;0.10;;;;;;;19.69;91.46;101638.88;5028557;28;20029;-74
2022/10/28 09:34:20;;;;;;;0.05;0.05;;;;;;;19.49;94.45;101648.09;5033129;28;20111;-74
2022/10/28 09:36:53;;;;;;;0.10;0.10;;;;;;;19.52;90.76;101641.50;5033168;28;20388;-76
2022/10/28 09:39:28;;;;;;;0.10;0.10;;;;;;;19.55;92.75;101643.03;5014713;28;20381;-71
2022/10/28 09:41:56;;;;;;;0.10;0.10;;;;;;;19.92;91.16;101637.34;5032113;28;20029;-72
2022/10/28 09:44:41;;;;;;;0.03;0.03;;;;;;;20.12;88.79;101647.16;5011921;28;20028;-72
2022/10/28 09:47:29;;;;;;;0.00;0.00;;;;;;;20.06;89.46;101648.66;5032174;28;20052;-71
2022/10/28 09:49:58;;;;;;;0.00;0.00;;;;;;;20.16;90.44;101638.47;5000372;28;20025;-75
2022/10/28 09:52:32;;;;;;;0.10;0.10;;;;;;;20.28;90.42;101640.91;5017183;28;20037;-72
2022/10/28 09:54:58;;;;;;;0.08;0.08;;;;;;;19.95;88.68;101641.63;5035779;28;20163;-73
2022/10/28 09:57:29;;;;;;;0.00;0.00;;;;;;;19.82;91.35;101639.31;5020573;28;20037;-75
2022/10/28 09:59:55;;;;;;;0.10;0.10;;;;;;;19.67;91.25;101636.31;5036480;28;20083;-77
2022/10/28 10:02:29;;;;;;;0.10;0.10;;;;;;;19.72;91.16;101633.09;5029630;28;20573;-71
2022/10/28 10:04:56;;;;;;;0.00;0.00;;;;;;;19.98;92.59;101641.31;5024273;28;20111;-74
2022/10/28 10:07:29;;;;;;;0.10;0.10;;;;;;;20.11;91.69;101656.34;5022366;28;20451;-72
2022/10/28 10:09:56;;;;;;;0.05;0.05;;;;;;;20.19;89.86;101626.41;5036197;28;20299;-71
2022/10/28 10:12:21;;;;;;;0.10;0.10;;;;;;;20.57;90.46;101647.84;5012532;28;20786;-72
2022/10/28 10:14:49;;;;;;;0.10;0.10;;;;;;;20.40;88.63;101641.47;5033811;28;20021;-73
2022/10/28 10:17:17;;;;;;;0.10;0.10;;;;;;;20.79;87.58;101647.22;5016247;28;20254;-71
2022/10/28 10:20:10;;;;;;;0.10;0.10;;;;;;;20.94;84.77;101650.16;5015365;28;20032;-73
2022/10/28 10:22:41;;;;;;;0.10;0.10;;;;;;;20.90;87.44;101651.50;5032787;28;20045;-72
2022/10/28 10:25:30;;;;;;;0.10;0.10;;;;;;;21.18;84.72;101648.47;5020078;28;20417;-70
2022/10/28 10:28:04;;;;;;;0.00;0.00;;;;;;;21.00;85.06;101615.03;5021453;28;20384;-69
2022/10/28 10:30:30;;;;;;;0.03;0.03;;;;;;;21.05;85.56;101639.94;5017746;28;20729;-70
2022/10/28 10:32:56;;;;;;;0.10;0.10;;;;;;;21.22;86.57;101632.59;5019454;28;20076;-72
2022/10/28 10:35:33;;;;;;;0.10;0.10;;;;;;;21.57;84.58;101635.97;5040420;28;20548;-72
2022/10/28 10:38:00;;;;;;;0.10;0.10;;;;;;;21.47;84.11;101647.09;5034026;28;20045;-72
2022/10/28 10:40:30;;;;;;;0.10;0.10;;;;;;;21.39;82.80;101637.03;5019378;28;20036;-71
2022/10/28 10:43:14;;;;;;;0.10;0.10;;;;;;;21.40;82.23;101630.56;5036827;28;20033;-72
2022/10/28 10:45:39;;;;;;;;;;;;;;;21.33;84.20;101626.78;5033348;28;20107;-73
2022/10/28 10:48:13;;;;;;;0.10;0.10;;;;;;;21.77;85.22;101635.63;5036548;28;20253;-70
2022/10/28 10:50:42;;;;;;;0.10;0.10;;;;;;;21.51;81.54;101620.28;5024160;28;20286;-72
2022/10/28 10:53:23;;;;;;;0.10;0.10;;;;;;;21.53;81.97;101632.75;5022248;28;20025;-70
2022/10/28 10:56:14;;;;;;;0.10;0.10;;;;;;;21.61;83.19;101626.44;5045404;28;20033;-72
2022/10/28 10:58:47;;;;;;;0.05;0.05;;;;;;;21.50;82.36;101624.03;5026000;28;20026;-72
2022/10/28 11:01:16;;;;;;;0.10;0.10;;;;;;;21.70;81.33;101616.34;5045641;28;20238;-75
2022/10/28 11:03:48;;;;;;;0.10;0.10;;;;;;;21.72;78.60;101603.38;5042535;28;20292;-70
2022/10/28 11:06:20;;;;;;;0.10;0.10;;;;;;;22.33;77.51;101611.00;5029059;28;20066;-75
2022/10/28 11:08:45;;;;;;;0.10;0.10;;;;;;;22.41;78.80;101610.09;5042274;28;20585;-71
2022/10/28 11:11:21;;;;;;;0.10;0.10;;;;;;;22.27;78.46;101596.13;5041639;28;20033;-74
2022/10/28 11:13:47;;;;;;;0.10;0.10;;;;;;;22.50;79.08;101594.50;5043178;28;20035;-72
2022/10/28 11:16:21;;;;;;;0.10;0.10;;;;;;;22.37;77.24;101601.41;5043645;28;20028;-73
2022/10/28 11:18:49;;;;;;;0.05;0.05;;;;;;;22.75;76.40;101603.41;5043864;28;20055;-74
2022/10/28 11:21:26;;;;;;;0.10;0.10;;;;;;;22.69;77.10;101598.66;5023854;28;20055;-72
2022/10/28 11:24:19;;;;;;;0.10;0.10;;;;;;;23.19;75.56;101599.97;5045964;28;20476;-74
2022/10/28 11:26:55;;;;;;;0.00;0.00;;;;;;;23.50;71.56;101600.91;5042507;28;20040;-69
2022/10/28 11:29:20;;;;;;;0.10;0.10;;;;;;;23.17;72.15;101599.31;5021704;28;20045;-71